sensor_id;sensor_type;location;lat;lon;timestamp;P1;P2;P0
30713;PMS7003;17465;47.934;33.430;2023-07-28T00:00:30;6.40;6.40;4.20
30713;PMS7003;17465;47.934;33.430;2023-07-28T00:03:00;8.40;8.40;5.20
30713;PMS7003;17465;47.934;33.430;2023-07-28T00:05:30;7.40;5.20;3.00
30713;PMS7003;17465;47.934;33.430;2023-07-28T00:08:01;8.80;8.60;4.20
30713;PMS7003;17465;47.934;33.430;2023-07-28T00:10:31;7.40;6.40;4.00
30713;PMS7003;17465;47.934;33.430;2023-07-28T00:13:01;7.00;7.00;5.00
30713;PMS7003;17465;47.934;33.430;2023-07-28T00:15:31;10.60;8.00;4.00
30713;PMS7003;17465;47.934;33.430;2023-07-28T00:18:02;5.80;5.80;3.00
30713;PMS7003;17465;47.934;33.430;2023-07-28T00:20:32;7.20;6.60;4.20
30713;PMS7003;17465;47.934;33.430;2023-07-28T00:23:02;9.40;8.00;5.20
30713;PMS7003;17465;47.934;33.430;2023-07-28T00:25:32;7.60;7.40;4.40
30713;PMS7003;17465;47.934;33.430;2023-07-28T00:28:03;6.20;6.20;3.40
30713;PMS7003;17465;47.934;33.430;2023-07-28T00:30:33;8.80;8.60;5.60
30713;PMS7003;17465;47.934;33.430;2023-07-28T00:33:03;9.40;9.40;6.40
30713;PMS7003;17465;47.934;33.430;2023-07-28T00:35:34;5.60;5.60;3.20
30713;PMS7003;17465;47.934;33.430;2023-07-28T00:38:04;10.00;10.00;5.20
30713;PMS7003;17465;47.934;33.430;2023-07-28T00:40:34;8.40;7.40;4.00
30713;PMS7003;17465;47.934;33.430;2023-07-28T00:43:05;7.60;7.60;4.80
30713;PMS7003;17465;47.934;33.430;2023-07-28T00:45:35;7.60;6.80;5.20
30713;PMS7003;17465;47.934;33.430;2023-07-28T00:48:10;7.00;7.00;3.80
30713;PMS7003;17465;47.934;33.430;2023-07-28T00:50:45;5.80;5.80;3.60
30713;PMS7003;17465;47.934;33.430;2023-07-28T00:53:12;6.20;6.20;4.20
30713;PMS7003;17465;47.934;33.430;2023-07-28T00:55:43;6.00;5.20;4.00
30713;PMS7003;17465;47.934;33.430;2023-07-28T00:58:13;4.60;4.60;2.20
30713;PMS7003;17465;47.934;33.430;2023-07-28T01:00:44;6.40;6.40;4.20
30713;PMS7003;17465;47.934;33.430;2023-07-28T01:03:15;6.00;6.00;3.80
30713;PMS7003;17465;47.934;33.430;2023-07-28T01:08:31;5.80;5.40;3.20
30713;PMS7003;17465;47.934;33.430;2023-07-28T01:11:15;6.60;6.60;3.40
30713;PMS7003;17465;47.934;33.430;2023-07-28T01:13:45;6.00;5.00;3.00
30713;PMS7003;17465;47.934;33.430;2023-07-28T01:16:16;8.20;6.80;3.40
30713;PMS7003;17465;47.934;33.430;2023-07-28T01:18:46;6.00;6.00;2.80
30713;PMS7003;17465;47.934;33.430;2023-07-28T01:21:20;7.80;7.40;4.20
30713;PMS7003;17465;47.934;33.430;2023-07-28T01:26:50;5.60;4.80;2.40
30713;PMS7003;17465;47.934;33.430;2023-07-28T01:29:21;4.60;3.80;2.00
30713;PMS7003;17465;47.934;33.430;2023-07-28T01:31:53;4.60;3.60;2.20
30713;PMS7003;17465;47.934;33.430;2023-07-28T01:34:23;4.60;4.60;3.00
30713;PMS7003;17465;47.934;33.430;2023-07-28T01:36:53;4.20;3.80;2.40
30713;PMS7003;17465;47.934;33.430;2023-07-28T01:39:23;3.20;3.20;1.00
30713;PMS7003;17465;47.934;33.430;2023-07-28T01:41:54;3.80;3.40;2.00
30713;PMS7003;17465;47.934;33.430;2023-07-28T01:44:24;3.40;3.40;2.20
30713;PMS7003;17465;47.934;33.430;2023-07-28T01:46:54;4.00;2.00;1.80
30713;PMS7003;17465;47.934;33.430;2023-07-28T01:49:25;3.60;2.80;1.40
30713;PMS7003;17465;47.934;33.430;2023-07-28T01:51:55;3.00;2.00;1.00
30713;PMS7003;17465;47.934;33.430;2023-07-28T01:54:25;3.20;2.80;1.20
30713;PMS7003;17465;47.934;33.430;2023-07-28T01:56:55;4.00;4.00;2.80
30713;PMS7003;17465;47.934;33.430;2023-07-28T01:59:26;6.20;6.20;3.80
30713;PMS7003;17465;47.934;33.430;2023-07-28T02:01:56;6.00;6.00;3.00
30713;PMS7003;17465;47.934;33.430;2023-07-28T02:04:26;8.00;5.80;3.60
30713;PMS7003;17465;47.934;33.430;2023-07-28T02:06:56;4.80;4.80;2.80
30713;PMS7003;17465;47.934;33.430;2023-07-28T02:09:27;7.80;6.20;3.40
30713;PMS7003;17465;47.934;33.430;2023-07-28T02:11:57;5.00;5.00;3.20
30713;PMS7003;17465;47.934;33.430;2023-07-28T02:14:27;5.00;5.00;2.60
30713;PMS7003;17465;47.934;33.430;2023-07-28T02:16:58;3.60;3.00;2.40
30713;PMS7003;17465;47.934;33.430;2023-07-28T02:19:28;6.00;6.00;4.40
30713;PMS7003;17465;47.934;33.430;2023-07-28T02:21:58;4.60;4.60;3.40
30713;PMS7003;17465;47.934;33.430;2023-07-28T02:24:28;6.00;5.00;4.00
30713;PMS7003;17465;47.934;33.430;2023-07-28T02:26:58;6.20;6.20;4.00
30713;PMS7003;17465;47.934;33.430;2023-07-28T02:29:29;10.60;9.00;6.20
30713;PMS7003;17465;47.934;33.430;2023-07-28T02:31:59;6.00;5.80;3.00
30713;PMS7003;17465;47.934;33.430;2023-07-28T02:34:30;5.40;5.20;3.20
30713;PMS7003;17465;47.934;33.430;2023-07-28T02:37:00;8.00;8.00;4.40
30713;PMS7003;17465;47.934;33.430;2023-07-28T02:39:30;10.00;8.60;5.00
30713;PMS7003;17465;47.934;33.430;2023-07-28T02:42:01;9.20;8.00;4.00
30713;PMS7003;17465;47.934;33.430;2023-07-28T02:44:33;7.60;7.60;5.00
30713;PMS7003;17465;47.934;33.430;2023-07-28T02:47:03;10.80;9.80;5.60
30713;PMS7003;17465;47.934;33.430;2023-07-28T02:49:34;11.00;11.00;6.80
30713;PMS7003;17465;47.934;33.430;2023-07-28T02:52:06;10.20;10.20;6.00
30713;PMS7003;17465;47.934;33.430;2023-07-28T02:54:37;9.80;9.80;6.60
30713;PMS7003;17465;47.934;33.430;2023-07-28T02:57:07;9.40;9.40;6.00
30713;PMS7003;17465;47.934;33.430;2023-07-28T02:59:37;9.60;9.60;5.20
30713;PMS7003;17465;47.934;33.430;2023-07-28T03:02:07;7.20;7.20;3.60
30713;PMS7003;17465;47.934;33.430;2023-07-28T03:04:38;8.80;8.80;4.00
30713;PMS7003;17465;47.934;33.430;2023-07-28T03:07:08;7.20;7.20;4.40
30713;PMS7003;17465;47.934;33.430;2023-07-28T03:09:38;6.40;6.40;4.00
30713;PMS7003;17465;47.934;33.430;2023-07-28T03:12:08;12.60;10.40;6.40
30713;PMS7003;17465;47.934;33.430;2023-07-28T03:14:40;7.80;7.80;4.20
30713;PMS7003;17465;47.934;33.430;2023-07-28T03:17:10;7.60;7.60;4.60
30713;PMS7003;17465;47.934;33.430;2023-07-28T03:19:41;11.00;9.20;5.20
30713;PMS7003;17465;47.934;33.430;2023-07-28T03:22:11;8.00;8.00;4.00
30713;PMS7003;17465;47.934;33.430;2023-07-28T03:24:41;12.00;11.00;6.40
30713;PMS7003;17465;47.934;33.430;2023-07-28T03:27:11;12.80;12.80;6.20
30713;PMS7003;17465;47.934;33.430;2023-07-28T03:29:42;11.00;11.00;5.20
30713;PMS7003;17465;47.934;33.430;2023-07-28T03:32:13;8.80;8.40;5.60
30713;PMS7003;17465;47.934;33.430;2023-07-28T03:34:43;10.00;9.00;5.00
30713;PMS7003;17465;47.934;33.430;2023-07-28T03:37:13;11.60;11.60;6.60
30713;PMS7003;17465;47.934;33.430;2023-07-28T03:39:43;8.80;8.20;4.40
30713;PMS7003;17465;47.934;33.430;2023-07-28T03:42:14;9.20;8.00;2.80
30713;PMS7003;17465;47.934;33.430;2023-07-28T03:44:44;8.60;8.40;4.60
30713;PMS7003;17465;47.934;33.430;2023-07-28T03:47:15;8.20;8.20;5.00
30713;PMS7003;17465;47.934;33.430;2023-07-28T03:49:45;10.60;9.40;5.00
30713;PMS7003;17465;47.934;33.430;2023-07-28T03:52:15;10.40;9.40;5.00
30713;PMS7003;17465;47.934;33.430;2023-07-28T03:54:46;11.00;11.00;4.20
30713;PMS7003;17465;47.934;33.430;2023-07-28T03:57:16;10.60;10.00;5.80
30713;PMS7003;17465;47.934;33.430;2023-07-28T03:59:46;7.80;7.80;5.40
30713;PMS7003;17465;47.934;33.430;2023-07-28T04:02:17;10.00;9.80;6.60
30713;PMS7003;17465;47.934;33.430;2023-07-28T04:04:47;11.00;9.00;5.00
30713;PMS7003;17465;47.934;33.430;2023-07-28T04:07:23;9.60;8.80;5.20
30713;PMS7003;17465;47.934;33.430;2023-07-28T04:09:53;10.20;10.20;5.80
30713;PMS7003;17465;47.934;33.430;2023-07-28T04:12:24;10.00;9.80;5.20
30713;PMS7003;17465;47.934;33.430;2023-07-28T04:14:55;11.60;11.60;5.80
30713;PMS7003;17465;47.934;33.430;2023-07-28T04:17:28;9.80;9.80;6.00
30713;PMS7003;17465;47.934;33.430;2023-07-28T04:19:58;9.80;8.80;4.80
30713;PMS7003;17465;47.934;33.430;2023-07-28T04:22:29;9.20;8.60;3.80
30713;PMS7003;17465;47.934;33.430;2023-07-28T04:24:59;12.00;9.40;4.00
30713;PMS7003;17465;47.934;33.430;2023-07-28T04:27:29;8.00;8.00;5.40
30713;PMS7003;17465;47.934;33.430;2023-07-28T04:30:00;8.60;8.60;3.00
30713;PMS7003;17465;47.934;33.430;2023-07-28T04:32:30;7.20;7.20;3.00
30713;PMS7003;17465;47.934;33.430;2023-07-28T04:35:00;7.20;7.20;4.20
30713;PMS7003;17465;47.934;33.430;2023-07-28T04:37:31;7.80;7.80;3.40
30713;PMS7003;17465;47.934;33.430;2023-07-28T04:40:01;6.60;6.00;3.40
30713;PMS7003;17465;47.934;33.430;2023-07-28T04:42:32;7.40;7.40;3.60
30713;PMS7003;17465;47.934;33.430;2023-07-28T04:45:03;5.00;5.00;2.60
30713;PMS7003;17465;47.934;33.430;2023-07-28T04:47:34;4.00;4.00;2.80
30713;PMS7003;17465;47.934;33.430;2023-07-28T04:50:04;8.60;8.60;4.00
30713;PMS7003;17465;47.934;33.430;2023-07-28T04:52:35;5.20;5.20;2.40
30713;PMS7003;17465;47.934;33.430;2023-07-28T04:55:06;5.80;4.80;2.00
30713;PMS7003;17465;47.934;33.430;2023-07-28T04:57:38;8.80;8.80;5.20
30713;PMS7003;17465;47.934;33.430;2023-07-28T05:00:13;6.80;6.80;3.20
30713;PMS7003;17465;47.934;33.430;2023-07-28T05:02:43;8.80;7.80;3.80
30713;PMS7003;17465;47.934;33.430;2023-07-28T05:05:15;8.00;6.00;2.40
30713;PMS7003;17465;47.934;33.430;2023-07-28T05:07:45;10.20;9.00;3.80
30713;PMS7003;17465;47.934;33.430;2023-07-28T05:10:15;9.60;6.60;4.00
30713;PMS7003;17465;47.934;33.430;2023-07-28T05:12:46;6.00;6.00;3.20
30713;PMS7003;17465;47.934;33.430;2023-07-28T05:15:17;7.60;7.60;4.00
30713;PMS7003;17465;47.934;33.430;2023-07-28T05:17:50;7.80;7.60;3.80
30713;PMS7003;17465;47.934;33.430;2023-07-28T05:20:20;7.20;6.80;4.60
30713;PMS7003;17465;47.934;33.430;2023-07-28T05:22:52;5.60;5.60;3.60
30713;PMS7003;17465;47.934;33.430;2023-07-28T05:25:23;6.20;5.40;2.00
30713;PMS7003;17465;47.934;33.430;2023-07-28T05:27:53;7.60;7.60;4.00
30713;PMS7003;17465;47.934;33.430;2023-07-28T05:30:23;11.20;9.40;4.40
30713;PMS7003;17465;47.934;33.430;2023-07-28T05:32:55;7.00;7.00;5.00
30713;PMS7003;17465;47.934;33.430;2023-07-28T05:35:26;7.80;7.80;3.00
30713;PMS7003;17465;47.934;33.430;2023-07-28T05:37:56;9.60;9.60;5.00
30713;PMS7003;17465;47.934;33.430;2023-07-28T05:40:26;8.20;8.20;5.40
30713;PMS7003;17465;47.934;33.430;2023-07-28T05:42:57;11.00;10.20;6.60
30713;PMS7003;17465;47.934;33.430;2023-07-28T05:45:27;10.60;10.60;6.20
30713;PMS7003;17465;47.934;33.430;2023-07-28T05:47:57;10.80;10.80;6.00
30713;PMS7003;17465;47.934;33.430;2023-07-28T05:50:28;10.80;10.00;6.00
30713;PMS7003;17465;47.934;33.430;2023-07-28T05:52:58;18.40;17.00;8.20
30713;PMS7003;17465;47.934;33.430;2023-07-28T05:55:28;14.20;13.20;7.40
30713;PMS7003;17465;47.934;33.430;2023-07-28T05:57:59;14.20;13.80;7.20
30713;PMS7003;17465;47.934;33.430;2023-07-28T06:00:30;14.80;13.60;8.00
30713;PMS7003;17465;47.934;33.430;2023-07-28T06:03:00;15.80;15.80;8.20
30713;PMS7003;17465;47.934;33.430;2023-07-28T06:05:31;15.00;14.40;8.00
30713;PMS7003;17465;47.934;33.430;2023-07-28T06:08:01;13.80;13.60;7.80
30713;PMS7003;17465;47.934;33.430;2023-07-28T06:10:31;12.20;12.20;7.40
30713;PMS7003;17465;47.934;33.430;2023-07-28T06:13:02;14.80;13.40;6.00
30713;PMS7003;17465;47.934;33.430;2023-07-28T06:15:32;9.00;9.00;4.80
30713;PMS7003;17465;47.934;33.430;2023-07-28T06:18:02;12.40;12.40;5.80
30713;PMS7003;17465;47.934;33.430;2023-07-28T06:20:34;12.40;11.20;7.20
30713;PMS7003;17465;47.934;33.430;2023-07-28T06:23:05;12.00;10.40;6.60
30713;PMS7003;17465;47.934;33.430;2023-07-28T06:25:39;11.40;10.40;5.80
30713;PMS7003;17465;47.934;33.430;2023-07-28T06:28:09;10.80;10.00;6.60
30713;PMS7003;17465;47.934;33.430;2023-07-28T06:30:40;10.00;9.60;6.40
30713;PMS7003;17465;47.934;33.430;2023-07-28T06:33:11;8.80;8.80;5.60
30713;PMS7003;17465;47.934;33.430;2023-07-28T06:35:44;12.80;11.20;5.80
30713;PMS7003;17465;47.934;33.430;2023-07-28T06:38:14;8.00;8.00;4.20
30713;PMS7003;17465;47.934;33.430;2023-07-28T06:40:45;8.60;8.60;2.40
30713;PMS7003;17465;47.934;33.430;2023-07-28T06:43:15;12.00;11.80;6.80
30713;PMS7003;17465;47.934;33.430;2023-07-28T06:45:46;11.60;10.20;6.20
30713;PMS7003;17465;47.934;33.430;2023-07-28T06:48:17;9.60;9.60;5.00
30713;PMS7003;17465;47.934;33.430;2023-07-28T06:50:48;11.40;11.20;5.80
30713;PMS7003;17465;47.934;33.430;2023-07-28T06:53:19;10.80;10.60;5.60
30713;PMS7003;17465;47.934;33.430;2023-07-28T06:55:49;11.40;11.40;7.20
30713;PMS7003;17465;47.934;33.430;2023-07-28T06:58:20;12.60;11.20;6.20
30713;PMS7003;17465;47.934;33.430;2023-07-28T07:00:50;9.40;9.40;6.60
30713;PMS7003;17465;47.934;33.430;2023-07-28T07:03:20;11.80;11.60;6.60
30713;PMS7003;17465;47.934;33.430;2023-07-28T07:05:51;12.00;10.40;6.40
30713;PMS7003;17465;47.934;33.430;2023-07-28T07:08:21;11.40;9.80;5.80
30713;PMS7003;17465;47.934;33.430;2023-07-28T07:10:52;9.40;9.40;5.40
30713;PMS7003;17465;47.934;33.430;2023-07-28T07:13:22;46.40;39.00;25.00
30713;PMS7003;17465;47.934;33.430;2023-07-28T07:15:52;11.00;10.20;5.40
30713;PMS7003;17465;47.934;33.430;2023-07-28T07:18:23;11.40;11.40;6.40
30713;PMS7003;17465;47.934;33.430;2023-07-28T07:20:53;12.80;11.40;5.60
30713;PMS7003;17465;47.934;33.430;2023-07-28T07:23:29;11.60;10.60;6.80
30713;PMS7003;17465;47.934;33.430;2023-07-28T07:25:55;10.00;10.00;6.60
30713;PMS7003;17465;47.934;33.430;2023-07-28T07:28:26;4.60;4.20;0.00
30713;PMS7003;17465;47.934;33.430;2023-07-28T07:30:56;10.00;10.00;5.40
30713;PMS7003;17465;47.934;33.430;2023-07-28T07:33:29;12.00;12.00;5.40
30713;PMS7003;17465;47.934;33.430;2023-07-28T07:36:00;10.80;9.40;5.20
30713;PMS7003;17465;47.934;33.430;2023-07-28T07:38:30;13.80;12.60;6.80
30713;PMS7003;17465;47.934;33.430;2023-07-28T07:41:09;15.80;13.80;8.80
30713;PMS7003;17465;47.934;33.430;2023-07-28T07:43:34;15.20;14.80;7.80
30713;PMS7003;17465;47.934;33.430;2023-07-28T07:46:05;11.40;10.40;5.00
30713;PMS7003;17465;47.934;33.430;2023-07-28T07:48:37;11.60;10.80;6.40
30713;PMS7003;17465;47.934;33.430;2023-07-28T07:51:08;13.80;11.80;7.80
30713;PMS7003;17465;47.934;33.430;2023-07-28T07:53:38;14.20;13.20;7.40
30713;PMS7003;17465;47.934;33.430;2023-07-28T07:56:08;13.80;13.20;9.20
30713;PMS7003;17465;47.934;33.430;2023-07-28T07:58:39;11.80;11.80;6.80
30713;PMS7003;17465;47.934;33.430;2023-07-28T08:01:10;11.80;11.80;7.60
30713;PMS7003;17465;47.934;33.430;2023-07-28T08:03:40;12.00;11.60;7.40
30713;PMS7003;17465;47.934;33.430;2023-07-28T08:06:10;11.00;11.00;5.20
30713;PMS7003;17465;47.934;33.430;2023-07-28T08:08:41;13.00;13.00;8.40
30713;PMS7003;17465;47.934;33.430;2023-07-28T08:11:12;8.80;8.00;4.60
30713;PMS7003;17465;47.934;33.430;2023-07-28T08:13:42;13.60;13.40;8.20
30713;PMS7003;17465;47.934;33.430;2023-07-28T08:16:15;9.60;9.00;3.80
30713;PMS7003;17465;47.934;33.430;2023-07-28T08:18:45;10.00;10.00;5.80
30713;PMS7003;17465;47.934;33.430;2023-07-28T08:21:15;12.60;12.20;7.00
30713;PMS7003;17465;47.934;33.430;2023-07-28T08:23:46;14.60;13.00;6.20
30713;PMS7003;17465;47.934;33.430;2023-07-28T08:26:16;13.20;13.20;6.20
30713;PMS7003;17465;47.934;33.430;2023-07-28T08:28:46;17.00;14.80;9.20
30713;PMS7003;17465;47.934;33.430;2023-07-28T08:31:16;13.20;13.00;7.20
30713;PMS7003;17465;47.934;33.430;2023-07-28T08:33:47;15.60;14.60;7.40
30713;PMS7003;17465;47.934;33.430;2023-07-28T08:36:17;14.80;14.80;8.60
30713;PMS7003;17465;47.934;33.430;2023-07-28T08:38:48;10.00;10.00;5.80
30713;PMS7003;17465;47.934;33.430;2023-07-28T08:41:18;14.00;13.00;6.80
30713;PMS7003;17465;47.934;33.430;2023-07-28T08:43:49;11.60;11.60;5.20
30713;PMS7003;17465;47.934;33.430;2023-07-28T08:46:20;14.00;12.20;7.00
30713;PMS7003;17465;47.934;33.430;2023-07-28T08:48:53;18.40;15.80;8.00
30713;PMS7003;17465;47.934;33.430;2023-07-28T08:51:22;8.40;8.40;4.00
30713;PMS7003;17465;47.934;33.430;2023-07-28T08:53:53;10.60;9.40;5.00
30713;PMS7003;17465;47.934;33.430;2023-07-28T08:56:24;12.40;11.80;5.80
30713;PMS7003;17465;47.934;33.430;2023-07-28T08:58:57;8.40;7.00;2.80
30713;PMS7003;17465;47.934;33.430;2023-07-28T09:01:29;12.20;11.60;6.40
30713;PMS7003;17465;47.934;33.430;2023-07-28T09:04:00;13.20;12.80;6.60
30713;PMS7003;17465;47.934;33.430;2023-07-28T09:06:31;12.20;12.20;6.60
30713;PMS7003;17465;47.934;33.430;2023-07-28T09:09:02;12.60;11.80;6.00
30713;PMS7003;17465;47.934;33.430;2023-07-28T09:11:50;9.60;9.60;4.60
30713;PMS7003;17465;47.934;33.430;2023-07-28T09:14:18;10.20;9.60;5.00
30713;PMS7003;17465;47.934;33.430;2023-07-28T09:16:50;10.20;9.00;5.00
30713;PMS7003;17465;47.934;33.430;2023-07-28T09:19:21;6.80;6.80;4.20
30713;PMS7003;17465;47.934;33.430;2023-07-28T09:21:58;9.40;8.60;4.20
30713;PMS7003;17465;47.934;33.430;2023-07-28T09:24:35;9.80;9.60;6.20
30713;PMS7003;17465;47.934;33.430;2023-07-28T09:27:02;12.60;11.40;6.80
30713;PMS7003;17465;47.934;33.430;2023-07-28T09:29:33;12.40;11.60;6.00
30713;PMS7003;17465;47.934;33.430;2023-07-28T09:32:12;15.40;13.00;8.00
30713;PMS7003;17465;47.934;33.430;2023-07-28T09:34:46;11.60;11.20;6.40
30713;PMS7003;17465;47.934;33.430;2023-07-28T09:37:17;13.00;13.00;7.80
30713;PMS7003;17465;47.934;33.430;2023-07-28T09:39:48;11.40;11.40;6.20
30713;PMS7003;17465;47.934;33.430;2023-07-28T09:42:18;13.00;12.40;6.00
30713;PMS7003;17465;47.934;33.430;2023-07-28T09:44:49;12.60;12.00;6.00
30713;PMS7003;17465;47.934;33.430;2023-07-28T09:47:19;8.60;7.40;5.80
30713;PMS7003;17465;47.934;33.430;2023-07-28T09:49:50;14.40;14.40;8.00
30713;PMS7003;17465;47.934;33.430;2023-07-28T09:52:25;15.40;15.40;9.40
30713;PMS7003;17465;47.934;33.430;2023-07-28T09:54:58;19.20;19.20;12.00
30713;PMS7003;17465;47.934;33.430;2023-07-28T09:57:44;21.20;20.20;12.40
30713;PMS7003;17465;47.934;33.430;2023-07-28T10:00:22;19.40;19.00;11.40
30713;PMS7003;17465;47.934;33.430;2023-07-28T10:02:53;17.20;17.20;9.80
30713;PMS7003;17465;47.934;33.430;2023-07-28T10:05:23;16.00;15.20;8.80
30713;PMS7003;17465;47.934;33.430;2023-07-28T10:07:58;20.40;19.40;14.00
30713;PMS7003;17465;47.934;33.430;2023-07-28T10:10:29;20.80;19.60;12.80
30713;PMS7003;17465;47.934;33.430;2023-07-28T10:13:05;23.20;22.00;14.00
30713;PMS7003;17465;47.934;33.430;2023-07-28T10:15:39;20.60;20.20;12.20
30713;PMS7003;17465;47.934;33.430;2023-07-28T10:18:12;25.20;24.60;13.20
30713;PMS7003;17465;47.934;33.430;2023-07-28T10:20:42;25.20;24.20;13.40
30713;PMS7003;17465;47.934;33.430;2023-07-28T10:23:22;19.40;19.40;11.20
30713;PMS7003;17465;47.934;33.430;2023-07-28T10:25:59;26.00;24.60;15.20
30713;PMS7003;17465;47.934;33.430;2023-07-28T10:28:30;24.40;23.20;16.00
30713;PMS7003;17465;47.934;33.430;2023-07-28T10:31:04;18.40;17.40;9.60
30713;PMS7003;17465;47.934;33.430;2023-07-28T10:33:39;26.00;24.20;15.40
30713;PMS7003;17465;47.934;33.430;2023-07-28T10:36:32;28.00;26.00;16.80
30713;PMS7003;17465;47.934;33.430;2023-07-28T10:42:03;24.40;23.60;15.60
30713;PMS7003;17465;47.934;33.430;2023-07-28T10:44:37;30.80;29.00;18.20
30713;PMS7003;17465;47.934;33.430;2023-07-28T10:47:09;33.60;29.60;18.00
30713;PMS7003;17465;47.934;33.430;2023-07-28T10:49:41;25.00;24.40;14.80
30713;PMS7003;17465;47.934;33.430;2023-07-28T10:52:11;25.00;25.00;17.40
30713;PMS7003;17465;47.934;33.430;2023-07-28T10:54:42;28.60;25.60;16.00
30713;PMS7003;17465;47.934;33.430;2023-07-28T10:57:12;29.20;26.80;16.40
30713;PMS7003;17465;47.934;33.430;2023-07-28T10:59:46;31.40;29.20;18.20
30713;PMS7003;17465;47.934;33.430;2023-07-28T11:02:16;26.20;25.60;16.60
30713;PMS7003;17465;47.934;33.430;2023-07-28T11:04:47;24.80;24.80;16.40
30713;PMS7003;17465;47.934;33.430;2023-07-28T11:07:18;26.00;25.00;16.40
30713;PMS7003;17465;47.934;33.430;2023-07-28T11:09:52;24.40;23.60;15.40
30713;PMS7003;17465;47.934;33.430;2023-07-28T11:12:24;24.60;23.80;14.60
30713;PMS7003;17465;47.934;33.430;2023-07-28T11:14:57;22.40;21.80;15.80
30713;PMS7003;17465;47.934;33.430;2023-07-28T11:17:28;25.80;24.80;14.80
30713;PMS7003;17465;47.934;33.430;2023-07-28T11:20:04;21.20;21.20;13.40
30713;PMS7003;17465;47.934;33.430;2023-07-28T11:22:32;26.00;24.60;16.60
30713;PMS7003;17465;47.934;33.430;2023-07-28T11:25:06;19.80;19.80;10.00
30713;PMS7003;17465;47.934;33.430;2023-07-28T11:27:38;29.20;27.20;17.20
30713;PMS7003;17465;47.934;33.430;2023-07-28T11:30:09;25.60;25.40;14.80
30713;PMS7003;17465;47.934;33.430;2023-07-28T11:35:32;21.00;21.00;13.00
30713;PMS7003;17465;47.934;33.430;2023-07-28T11:38:04;23.20;23.20;12.40
30713;PMS7003;17465;47.934;33.430;2023-07-28T11:40:35;22.80;19.80;12.60
30713;PMS7003;17465;47.934;33.430;2023-07-28T11:43:26;24.60;23.40;14.40
30713;PMS7003;17465;47.934;33.430;2023-07-28T11:45:56;24.40;24.40;15.40
30713;PMS7003;17465;47.934;33.430;2023-07-28T11:48:29;23.20;20.60;14.80
30713;PMS7003;17465;47.934;33.430;2023-07-28T11:51:01;25.20;24.60;16.20
30713;PMS7003;17465;47.934;33.430;2023-07-28T11:53:32;26.40;25.60;15.00
30713;PMS7003;17465;47.934;33.430;2023-07-28T11:56:04;25.40;24.40;16.20
30713;PMS7003;17465;47.934;33.430;2023-07-28T11:58:34;27.40;25.40;16.60
30713;PMS7003;17465;47.934;33.430;2023-07-28T12:01:07;24.80;24.60;19.00
30713;PMS7003;17465;47.934;33.430;2023-07-28T12:03:38;28.60;27.00;18.00
30713;PMS7003;17465;47.934;33.430;2023-07-28T12:06:08;32.00;28.40;17.80
30713;PMS7003;17465;47.934;33.430;2023-07-28T12:08:40;25.80;25.80;17.60
30713;PMS7003;17465;47.934;33.430;2023-07-28T12:11:14;25.00;25.00;16.20
30713;PMS7003;17465;47.934;33.430;2023-07-28T12:13:49;21.20;21.00;14.80
30713;PMS7003;17465;47.934;33.430;2023-07-28T12:19:26;23.40;21.00;13.60
30713;PMS7003;17465;47.934;33.430;2023-07-28T12:21:57;21.40;19.80;13.80
30713;PMS7003;17465;47.934;33.430;2023-07-28T12:24:27;21.60;21.40;15.80
30713;PMS7003;17465;47.934;33.430;2023-07-28T12:26:57;24.60;21.80;14.80
30713;PMS7003;17465;47.934;33.430;2023-07-28T12:29:27;20.40;20.40;13.40
30713;PMS7003;17465;47.934;33.430;2023-07-28T12:31:59;20.40;20.40;14.40
30713;PMS7003;17465;47.934;33.430;2023-07-28T12:34:37;13.80;13.80;6.60
30713;PMS7003;17465;47.934;33.430;2023-07-28T12:37:08;13.20;13.20;7.60
30713;PMS7003;17465;47.934;33.430;2023-07-28T12:39:40;15.80;14.00;10.00
30713;PMS7003;17465;47.934;33.430;2023-07-28T12:42:12;15.80;15.80;9.80
30713;PMS7003;17465;47.934;33.430;2023-07-28T12:44:43;14.00;14.00;10.20
30713;PMS7003;17465;47.934;33.430;2023-07-28T12:47:15;14.80;14.20;9.00
30713;PMS7003;17465;47.934;33.430;2023-07-28T12:49:47;13.80;13.00;10.40
30713;PMS7003;17465;47.934;33.430;2023-07-28T12:52:19;15.00;15.00;9.80
30713;PMS7003;17465;47.934;33.430;2023-07-28T12:54:50;10.20;9.20;5.60
30713;PMS7003;17465;47.934;33.430;2023-07-28T12:57:21;13.80;13.80;9.60
30713;PMS7003;17465;47.934;33.430;2023-07-28T12:59:51;14.40;12.80;8.60
30713;PMS7003;17465;47.934;33.430;2023-07-28T13:02:23;15.00;14.80;8.80
30713;PMS7003;17465;47.934;33.430;2023-07-28T13:04:54;10.80;10.80;7.80
30713;PMS7003;17465;47.934;33.430;2023-07-28T13:07:27;15.00;15.00;9.40
30713;PMS7003;17465;47.934;33.430;2023-07-28T13:09:59;15.00;14.00;10.80
30713;PMS7003;17465;47.934;33.430;2023-07-28T13:12:34;12.80;11.40;7.80
30713;PMS7003;17465;47.934;33.430;2023-07-28T13:15:06;13.00;12.40;9.40
30713;PMS7003;17465;47.934;33.430;2023-07-28T13:17:38;12.00;12.00;7.60
30713;PMS7003;17465;47.934;33.430;2023-07-28T13:20:11;12.00;11.80;8.80
30713;PMS7003;17465;47.934;33.430;2023-07-28T13:22:42;13.00;13.00;10.00
30713;PMS7003;17465;47.934;33.430;2023-07-28T13:25:12;9.20;8.20;5.60
30713;PMS7003;17465;47.934;33.430;2023-07-28T13:27:42;9.00;9.00;6.60
30713;PMS7003;17465;47.934;33.430;2023-07-28T13:30:12;8.40;8.40;6.00
30713;PMS7003;17465;47.934;33.430;2023-07-28T13:32:43;8.60;8.60;6.00
30713;PMS7003;17465;47.934;33.430;2023-07-28T13:35:13;10.60;9.00;6.80
30713;PMS7003;17465;47.934;33.430;2023-07-28T13:37:44;12.80;12.80;9.00
30713;PMS7003;17465;47.934;33.430;2023-07-28T13:40:14;10.00;9.20;8.00
30713;PMS7003;17465;47.934;33.430;2023-07-28T13:42:45;13.40;13.40;9.80
30713;PMS7003;17465;47.934;33.430;2023-07-28T13:45:16;9.80;9.80;9.00
30713;PMS7003;17465;47.934;33.430;2023-07-28T13:47:46;13.60;13.40;9.20
30713;PMS7003;17465;47.934;33.430;2023-07-28T13:50:16;13.00;13.00;9.80
30713;PMS7003;17465;47.934;33.430;2023-07-28T13:52:47;12.80;12.80;9.80
30713;PMS7003;17465;47.934;33.430;2023-07-28T13:55:18;13.00;11.00;8.00
30713;PMS7003;17465;47.934;33.430;2023-07-28T13:57:50;11.80;11.80;8.40
30713;PMS7003;17465;47.934;33.430;2023-07-28T14:00:20;12.20;12.20;9.00
30713;PMS7003;17465;47.934;33.430;2023-07-28T14:02:51;10.40;10.40;7.60
30713;PMS7003;17465;47.934;33.430;2023-07-28T14:05:21;8.00;8.00;5.80
30713;PMS7003;17465;47.934;33.430;2023-07-28T14:07:51;11.60;11.60;8.80
30713;PMS7003;17465;47.934;33.430;2023-07-28T14:10:22;9.60;9.60;6.40
30713;PMS7003;17465;47.934;33.430;2023-07-28T14:12:52;8.80;8.80;5.80
30713;PMS7003;17465;47.934;33.430;2023-07-28T14:15:22;8.40;8.40;5.80
30713;PMS7003;17465;47.934;33.430;2023-07-28T14:17:52;11.40;11.40;8.80
30713;PMS7003;17465;47.934;33.430;2023-07-28T14:20:23;9.20;9.20;6.60
30713;PMS7003;17465;47.934;33.430;2023-07-28T14:22:53;10.20;10.00;7.60
30713;PMS7003;17465;47.934;33.430;2023-07-28T14:25:23;10.40;10.40;7.00
30713;PMS7003;17465;47.934;33.430;2023-07-28T14:27:54;11.60;11.60;8.60
30713;PMS7003;17465;47.934;33.430;2023-07-28T14:30:24;10.60;10.60;7.80